createdAt,value
2019-03-22T00:02:47.856Z,29.60
2019-03-22T00:07:52.493Z,35.03
2019-03-22T00:12:57.369Z,31.90
2019-03-22T00:18:02.015Z,28.32
2019-03-22T00:23:06.603Z,29.15
2019-03-22T00:28:12.129Z,27.17
2019-03-22T00:33:18.579Z,28.10
2019-03-22T00:38:23.919Z,28.17
2019-03-22T00:43:28.979Z,28.55
2019-03-22T00:48:34.001Z,28.20
2019-03-22T00:53:41.675Z,36.28
2019-03-22T00:58:45.903Z,31.95
2019-03-22T01:03:50.705Z,25.30
2019-03-22T01:08:55.448Z,28.32
2019-03-22T01:14:02.267Z,29.48
2019-03-22T01:19:08.167Z,28.00
2019-03-22T01:24:12.643Z,28.02
2019-03-22T01:29:22.343Z,30.37
2019-03-22T01:34:27.431Z,33.42
2019-03-22T01:39:31.549Z,43.63
2019-03-22T01:44:35.883Z,43.05
2019-03-22T01:49:40.267Z,28.10
2019-03-22T01:54:45.482Z,30.97
2019-03-22T01:59:49.678Z,30.97
2019-03-22T02:04:53.990Z,31.30
2019-03-22T02:09:58.284Z,24.82
2019-03-22T02:15:04.211Z,35.55
2019-03-22T02:20:09.135Z,36.20
2019-03-22T02:25:14.413Z,35.95
2019-03-22T02:30:19.433Z,29.85
2019-03-22T02:35:28.992Z,35.98
2019-03-22T02:40:32.511Z,38.80
2019-03-22T02:45:36.997Z,35.65
2019-03-22T02:50:41.538Z,37.98
2019-03-22T02:55:46.091Z,39.98
2019-03-22T03:00:50.713Z,27.70
2019-03-22T03:05:56.252Z,39.92
2019-03-22T03:11:01.573Z,38.92
2019-03-22T03:16:05.834Z,39.88
2019-03-22T03:21:10.114Z,38.58
2019-03-22T03:26:16.446Z,39.10
2019-03-22T03:31:20.897Z,42.25
2019-03-22T03:36:25.453Z,36.63
2019-03-22T03:41:29.998Z,40.73
2019-03-22T03:46:34.489Z,42.93
2019-03-22T03:51:39.392Z,37.03
2019-03-22T03:56:44.005Z,42.53
2019-03-22T04:01:48.937Z,43.63
2019-03-22T04:06:53.698Z,42.17
2019-03-22T04:11:58.064Z,39.38
2019-03-22T04:17:02.803Z,39.60
2019-03-22T04:22:07.826Z,37.50
2019-03-22T04:27:12.178Z,40.52
2019-03-22T04:32:17.675Z,38.83
2019-03-22T04:37:23.186Z,39.55
2019-03-22T04:42:28.912Z,43.58
2019-03-22T04:47:35.234Z,31.45
2019-03-22T04:52:40.070Z,40.57
2019-03-22T04:57:47.250Z,41.02
2019-03-22T05:07:55.798Z,40.60
2019-03-22T05:13:01.821Z,36.90
2019-03-22T05:18:07.476Z,40.28
2019-03-22T05:23:15.467Z,38.75
2019-03-22T05:28:21.170Z,39.53
2019-03-22T05:33:25.342Z,39.33
2019-03-22T05:38:29.797Z,37.20
2019-03-22T05:43:35.133Z,33.05
2019-03-22T05:48:39.748Z,38.33
2019-03-22T05:53:45.201Z,35.65
2019-03-22T05:58:49.873Z,38.28
2019-03-22T06:03:54.237Z,36.15
2019-03-22T06:08:58.617Z,36.93
2019-03-22T06:14:02.752Z,34.43
2019-03-22T06:19:06.895Z,33.73
2019-03-22T06:24:11.159Z,33.75
2019-03-22T06:29:15.621Z,34.20
2019-03-22T06:34:19.862Z,33.50
2019-03-22T06:39:24.277Z,33.02
2019-03-22T06:44:28.447Z,32.80
2019-03-22T06:49:36.520Z,32.60
2019-03-22T06:54:41.132Z,26.43
2019-03-22T06:59:45.234Z,29.77
2019-03-22T07:04:49.725Z,31.80
2019-03-22T07:09:54.273Z,32.10
2019-03-22T07:14:59.291Z,30.25
2019-03-22T07:20:05.389Z,30.35
2019-03-22T07:25:09.836Z,29.27
2019-03-22T07:30:18.896Z,30.75
2019-03-22T07:35:21.214Z,30.53
2019-03-22T07:40:29.307Z,30.08
2019-03-22T07:45:34.278Z,27.95
2019-03-22T07:50:39.075Z,26.42
2019-03-22T07:55:44.530Z,23.67
2019-03-22T08:00:48.623Z,29.80
2019-03-22T08:05:52.832Z,24.75
2019-03-22T08:10:57.146Z,23.65
2019-03-22T08:16:01.471Z,27.22
2019-03-22T08:21:05.751Z,31.80
2019-03-22T08:26:09.876Z,29.35
2019-03-22T08:31:15.402Z,31.07
2019-03-22T08:36:20.454Z,27.13
2019-03-22T08:41:24.962Z,27.27
2019-03-22T08:46:30.237Z,25.50
2019-03-22T08:51:34.596Z,28.02
2019-03-22T08:56:39.791Z,27.50
2019-03-22T09:01:44.048Z,28.05
2019-03-22T09:06:49.296Z,26.17
2019-03-22T09:11:54.895Z,26.17
2019-03-22T09:17:00.977Z,28.67
2019-03-22T09:22:06.288Z,28.40
2019-03-22T09:27:10.453Z,21.70
2019-03-22T09:32:14.765Z,22.87
2019-03-22T09:37:19.256Z,18.37
2019-03-22T09:42:23.565Z,18.92
2019-03-22T09:47:28.819Z,19.85
2019-03-22T09:52:35.694Z,20.75
2019-03-22T09:57:39.945Z,16.93
2019-03-22T10:02:44.853Z,15.25
2019-03-22T10:07:50.176Z,12.58
2019-03-22T10:12:54.788Z,14.00
2019-03-22T10:17:59.655Z,13.68
2019-03-22T10:23:04.654Z,14.50
2019-03-22T10:28:08.811Z,11.73
2019-03-22T10:33:22.691Z,11.85
2019-03-22T10:38:30.976Z,12.63
2019-03-22T10:43:26.054Z,11.93
2019-03-22T10:48:31.166Z,10.93
2019-03-22T10:53:35.908Z,10.90
2019-03-22T10:58:40.043Z,9.00
2019-03-22T11:03:44.149Z,9.40
2019-03-22T11:08:48.345Z,10.72
2019-03-22T11:13:53.759Z,11.20
2019-03-22T11:18:57.895Z,12.20
2019-03-22T11:24:02.092Z,14.07
2019-03-22T11:29:07.369Z,13.98
2019-03-22T11:34:12.657Z,13.65
2019-03-22T11:39:16.752Z,16.07
2019-03-22T11:44:22.463Z,14.45
2019-03-22T11:49:27.667Z,15.10
2019-03-22T11:54:31.777Z,10.45
2019-03-22T11:59:35.936Z,11.53
2019-03-22T12:04:40.601Z,8.98
2019-03-22T12:09:45.622Z,10.48
2019-03-22T12:14:50.011Z,10.23
2019-03-22T12:19:54.150Z,8.35
2019-03-22T12:24:58.265Z,9.05
2019-03-22T12:30:05.133Z,9.33
2019-03-22T12:35:11.092Z,10.85
2019-03-22T12:40:16.838Z,11.70
2019-03-22T12:45:22.921Z,10.48
2019-03-22T12:50:28.004Z,9.90
2019-03-22T12:55:34.389Z,9.85
2019-03-22T13:00:38.541Z,7.22
2019-03-22T13:05:43.685Z,9.05
2019-03-22T13:10:49.945Z,7.80
2019-03-22T13:15:54.968Z,7.78
2019-03-22T13:20:59.917Z,7.75
2019-03-22T13:26:04.411Z,7.80
2019-03-22T13:31:08.996Z,9.15
2019-03-22T13:36:17.146Z,9.95
2019-03-22T13:41:22.398Z,10.82
2019-03-22T13:46:26.567Z,10.38
2019-03-22T13:51:31.418Z,8.98
2019-03-22T13:56:36.204Z,8.80
2019-03-22T14:01:41.469Z,9.80
2019-03-22T14:06:46.525Z,9.93
2019-03-22T14:11:53.963Z,9.70
2019-03-22T14:17:02.399Z,10.63
2019-03-22T14:22:06.613Z,11.03
2019-03-22T14:27:11.400Z,10.35
2019-03-22T14:32:15.544Z,10.25
2019-03-22T14:37:19.673Z,10.15
2019-03-22T14:42:25.172Z,8.65
2019-03-22T14:47:30.310Z,10.30
2019-03-22T14:52:34.521Z,9.98
2019-03-22T14:57:48.248Z,9.03
2019-03-22T15:02:46.093Z,10.03
2019-03-22T15:07:51.568Z,8.75
2019-03-22T15:12:56.608Z,9.20
2019-03-22T15:18:27.034Z,8.05
2019-03-22T15:23:50.281Z,8.18
2019-03-22T15:29:10.227Z,7.92
2019-03-22T15:34:38.526Z,7.72
2019-03-22T15:39:59.804Z,7.72
2019-03-22T15:45:06.750Z,9.08
2019-03-22T15:50:14.040Z,9.23
2019-03-22T15:55:18.202Z,9.48
2019-03-22T16:00:23.207Z,9.60
2019-03-22T16:05:27.442Z,8.28
2019-03-22T16:10:35.538Z,7.78
2019-03-22T16:15:40.162Z,7.78
2019-03-22T16:20:45.314Z,7.95
2019-03-22T16:25:49.689Z,8.73
2019-03-22T16:30:55.536Z,8.78
2019-03-22T16:36:00.268Z,9.60
2019-03-22T16:41:07.002Z,10.15
2019-03-22T16:46:11.139Z,10.50
2019-03-22T16:51:15.659Z,10.68
2019-03-22T16:56:19.773Z,11.38
2019-03-22T17:01:24.936Z,11.00
2019-03-22T17:06:30.308Z,11.63
2019-03-22T17:11:34.823Z,12.45
2019-03-22T17:16:40.178Z,13.50
2019-03-22T17:21:44.795Z,17.07
2019-03-22T17:26:48.900Z,17.42
2019-03-22T17:31:53.030Z,18.62
2019-03-22T17:36:58.620Z,19.07
2019-03-22T17:42:02.812Z,19.98
2019-03-22T17:47:07.163Z,21.23
2019-03-22T17:52:11.165Z,21.60
2019-03-22T17:57:18.910Z,22.50
2019-03-22T18:02:22.373Z,22.60
2019-03-22T18:07:26.995Z,24.23
2019-03-22T18:12:31.084Z,23.00
2019-03-22T18:17:35.985Z,23.83
2019-03-22T18:22:40.419Z,22.85
2019-03-22T18:27:44.582Z,23.22
2019-03-22T18:32:49.485Z,32.67
2019-03-22T18:37:53.701Z,57.58
2019-03-22T18:42:59.404Z,56.02
2019-03-22T18:48:03.634Z,51.08
2019-03-22T18:53:07.794Z,44.25
2019-03-22T18:58:12.019Z,43.73
2019-03-22T19:03:16.120Z,45.12
2019-03-22T19:08:20.771Z,45.80
2019-03-22T19:13:30.580Z,46.18
2019-03-22T19:18:32.798Z,51.25
2019-03-22T19:23:37.595Z,51.45
2019-03-22T19:28:41.836Z,71.00
2019-03-22T19:33:50.947Z,62.80
2019-03-22T19:38:55.235Z,57.95
2019-03-22T19:44:03.039Z,62.83
2019-03-22T19:49:08.424Z,80.25
2019-03-22T19:54:12.843Z,73.28
2019-03-22T19:59:19.739Z,61.40
2019-03-22T20:04:27.647Z,54.15
2019-03-22T20:09:33.411Z,60.17
2019-03-22T20:14:39.723Z,68.80
2019-03-22T20:19:49.486Z,65.57
2019-03-22T20:24:59.408Z,68.75
2019-03-22T20:30:05.624Z,64.17
2019-03-22T20:35:16.461Z,67.00
2019-03-22T20:40:17.949Z,71.62
2019-03-22T20:45:24.615Z,74.62
2019-03-22T20:50:35.750Z,62.53
2019-03-22T20:55:38.773Z,59.95
2019-03-22T21:00:44.389Z,56.70
2019-03-22T21:05:51.192Z,58.87
2019-03-22T21:11:00.102Z,74.70
2019-03-22T21:16:04.277Z,78.15
2019-03-22T21:21:12.881Z,77.47
2019-03-22T21:26:17.849Z,72.40
2019-03-22T21:31:22.084Z,71.72
2019-03-22T21:36:28.539Z,60.70
2019-03-22T21:41:36.239Z,79.50
2019-03-22T21:46:41.131Z,87.05
2019-03-22T21:51:45.840Z,98.15
2019-03-22T21:56:50.817Z,98.12
2019-03-22T22:01:55.309Z,75.28
2019-03-22T22:07:00.937Z,64.12
2019-03-22T22:12:09.271Z,59.93
2019-03-22T22:17:14.853Z,79.00
2019-03-22T22:22:20.301Z,83.00
2019-03-22T22:27:27.735Z,93.42
2019-03-22T22:32:33.791Z,115.32
2019-03-22T22:37:45.526Z,107.20
2019-03-22T22:42:51.108Z,111.25
2019-03-22T22:48:04.263Z,116.97
2019-03-22T22:53:11.229Z,117.95
2019-03-22T22:58:21.193Z,122.80
2019-03-22T23:03:27.838Z,112.50
2019-03-22T23:08:32.397Z,113.92
2019-03-22T23:13:36.539Z,117.13
2019-03-22T23:18:41.930Z,110.55
2019-03-22T23:23:56.312Z,99.65
2019-03-22T23:29:03.188Z,81.65
2019-03-22T23:34:08.649Z,70.67
2019-03-22T23:39:14.227Z,64.00
2019-03-22T23:44:21.327Z,76.42
2019-03-22T23:49:26.528Z,98.78
2019-03-22T23:54:35.169Z,93.78
2019-03-22T23:59:43.613Z,95.72
